createdAt,value
2018-11-06T00:00:31.337Z,4.08
2018-11-06T00:01:37.445Z,4.08
2018-11-06T00:02:43.558Z,4.08
2018-11-06T00:03:49.685Z,4.08
2018-11-06T00:04:56.337Z,4.08
2018-11-06T00:06:01.918Z,4.08
2018-11-06T00:07:08.041Z,4.08
2018-11-06T00:08:14.642Z,4.08
2018-11-06T00:09:20.317Z,4.08
2018-11-06T00:10:26.401Z,4.08
2018-11-06T00:11:32.525Z,4.08
2018-11-06T00:12:39.149Z,4.08
2018-11-06T00:13:44.774Z,4.08
2018-11-06T00:14:50.904Z,4.08
2018-11-06T00:15:57.504Z,4.08
2018-11-06T00:17:03.138Z,4.08
2018-11-06T00:18:09.778Z,4.08
2018-11-06T00:19:16.889Z,4.08
2018-11-06T00:20:21.531Z,4.08
2018-11-06T00:21:27.644Z,4.08
2018-11-06T00:22:34.286Z,4.08
2018-11-06T00:23:40.394Z,4.08
2018-11-06T00:24:46.574Z,4.08
2018-11-06T00:25:52.174Z,4.08
2018-11-06T00:26:58.298Z,4.08
2018-11-06T00:28:04.922Z,4.08
2018-11-06T00:29:10.558Z,4.08
2018-11-06T00:30:16.697Z,4.08
2018-11-06T00:31:22.831Z,4.08
2018-11-06T00:32:29.448Z,4.08
2018-11-06T00:33:35.604Z,4.08
2018-11-06T00:34:41.229Z,4.08
2018-11-06T00:35:47.353Z,4.08
2018-11-06T00:36:53.491Z,4.08
2018-11-06T00:37:59.618Z,4.08
2018-11-06T00:39:05.751Z,4.08
2018-11-06T00:40:12.383Z,4.08
2018-11-06T00:41:18.566Z,4.08
2018-11-06T00:42:24.161Z,4.08
2018-11-06T00:43:30.312Z,4.08
2018-11-06T00:44:36.448Z,4.08
2018-11-06T00:45:42.578Z,4.08
2018-11-06T00:46:49.200Z,4.08
2018-11-06T00:47:54.858Z,4.08
2018-11-06T00:49:01.478Z,4.08
2018-11-06T00:50:07.136Z,4.08
2018-11-06T00:51:13.271Z,4.08
2018-11-06T00:52:19.408Z,4.08
2018-11-06T00:53:25.552Z,4.08
2018-11-06T00:54:32.195Z,4.08
2018-11-06T00:55:37.837Z,4.08
2018-11-06T00:56:43.969Z,4.08
2018-11-06T00:57:50.110Z,4.08
2018-11-06T00:58:56.784Z,4.08
2018-11-06T01:00:02.402Z,4.08
2018-11-06T01:01:08.545Z,4.08
2018-11-06T01:02:14.690Z,4.08
2018-11-06T01:03:20.832Z,4.08
2018-11-06T01:04:26.974Z,4.08
2018-11-06T01:05:33.619Z,4.08
2018-11-06T01:06:39.279Z,4.08
2018-11-06T01:07:47.043Z,4.08
2018-11-06T01:08:51.568Z,4.08
2018-11-06T01:09:58.205Z,4.08
2018-11-06T01:11:03.861Z,4.08
2018-11-06T01:12:10.577Z,4.08
2018-11-06T01:13:16.153Z,4.08
2018-11-06T01:14:22.310Z,4.08
2018-11-06T01:15:28.938Z,4.08
2018-11-06T01:16:34.600Z,4.08
2018-11-06T01:17:41.241Z,4.08
2018-11-06T01:19:53.061Z,4.08
2018-11-06T01:20:59.203Z,4.08
2018-11-06T01:22:05.357Z,4.08
2018-11-06T01:23:11.506Z,4.08
2018-11-06T01:24:17.668Z,4.08
2018-11-06T01:25:24.313Z,4.08
2018-11-06T01:26:30.563Z,4.08
2018-11-06T01:27:36.132Z,4.08
2018-11-06T01:28:42.791Z,4.08
2018-11-06T01:29:48.962Z,4.08
2018-11-06T01:30:54.593Z,4.08
2018-11-06T01:32:01.255Z,4.08
2018-11-06T01:33:06.918Z,4.08
2018-11-06T01:34:13.069Z,4.08
2018-11-06T01:35:19.238Z,4.08
2018-11-06T01:36:25.431Z,4.08
2018-11-06T01:37:31.554Z,4.08
2018-11-06T01:38:37.699Z,4.08
2018-11-06T01:39:43.860Z,4.08
2018-11-06T01:40:50.580Z,4.08
2018-11-06T01:41:56.187Z,4.08
2018-11-06T01:43:02.355Z,4.08
2018-11-06T01:44:08.504Z,4.08
2018-11-06T01:45:14.683Z,4.08
2018-11-06T01:46:21.337Z,4.08
2018-11-06T01:47:27.013Z,4.08
2018-11-06T01:48:33.159Z,4.08
2018-11-06T01:49:39.332Z,4.08
2018-11-06T01:50:45.499Z,4.08
2018-11-06T01:51:51.667Z,4.08
2018-11-06T01:52:57.834Z,4.08
2018-11-06T01:54:04.011Z,4.08
2018-11-06T01:55:10.164Z,4.08
2018-11-06T01:56:16.350Z,4.08
2018-11-06T01:57:23.012Z,4.08
2018-11-06T01:58:28.681Z,4.08
2018-11-06T01:59:35.360Z,4.08
2018-11-06T02:00:41.036Z,4.08
2018-11-06T02:01:47.204Z,4.08
2018-11-06T02:02:53.870Z,4.08
2018-11-06T02:04:01.048Z,4.08
2018-11-06T02:05:05.731Z,4.08
2018-11-06T02:06:12.396Z,4.08
2018-11-06T02:07:18.092Z,4.07
2018-11-06T02:08:24.265Z,4.07
2018-11-06T02:09:30.932Z,4.08
2018-11-06T02:10:36.621Z,4.08
2018-11-06T02:11:42.795Z,4.08
2018-11-06T02:12:48.970Z,4.08
2018-11-06T02:13:55.643Z,4.07
2018-11-06T02:15:01.329Z,4.08
2018-11-06T02:16:07.509Z,4.07
2018-11-06T02:17:14.178Z,4.08
2018-11-06T02:18:20.349Z,4.08
2018-11-06T02:19:26.044Z,4.08
2018-11-06T02:20:32.720Z,4.07
2018-11-06T02:21:38.407Z,4.08
2018-11-06T02:22:45.070Z,4.08
2018-11-06T02:23:50.767Z,4.08
2018-11-06T02:24:58.430Z,4.07
2018-11-06T02:26:03.124Z,4.08
2018-11-06T02:27:09.799Z,4.07
2018-11-06T02:28:15.479Z,4.08
2018-11-06T02:29:21.666Z,4.07
2018-11-06T02:30:27.844Z,4.07
2018-11-06T02:31:34.600Z,4.07
2018-11-06T02:32:40.211Z,4.08
2018-11-06T02:33:46.380Z,4.07
2018-11-06T02:34:53.050Z,4.07
2018-11-06T02:35:58.740Z,4.07
2018-11-06T02:37:05.432Z,4.07
2018-11-06T02:38:11.608Z,4.07
2018-11-06T02:39:17.292Z,4.07
2018-11-06T02:40:23.487Z,4.07
2018-11-06T02:41:29.658Z,4.07
2018-11-06T02:42:35.845Z,4.07
2018-11-06T02:43:42.576Z,4.08
2018-11-06T02:44:48.687Z,4.07
2018-11-06T02:45:54.375Z,4.07
2018-11-06T02:47:09.030Z,4.07
2018-11-06T02:48:15.026Z,4.07
2018-11-06T02:49:21.197Z,4.07
2018-11-06T02:50:27.872Z,4.07
2018-11-06T02:51:34.078Z,4.07
2018-11-06T02:52:40.241Z,4.07
2018-11-06T02:53:46.411Z,4.07
2018-11-06T02:54:52.107Z,4.07
2018-11-06T02:55:58.313Z,4.07
2018-11-06T02:57:04.477Z,4.07
2018-11-06T02:58:10.634Z,4.07
2018-11-06T02:59:17.308Z,4.08
2018-11-06T03:00:23.486Z,4.07
2018-11-06T03:01:29.171Z,4.07
2018-11-06T03:02:35.850Z,4.07
2018-11-06T03:03:42.039Z,4.07
2018-11-06T03:04:47.720Z,4.07
2018-11-06T03:05:54.395Z,4.07
2018-11-06T03:07:00.573Z,4.07
2018-11-06T03:08:06.263Z,4.07
2018-11-06T03:09:12.922Z,4.07
2018-11-06T03:10:18.688Z,4.07
2018-11-06T03:11:24.792Z,4.07
2018-11-06T03:12:30.971Z,4.07
2018-11-06T03:13:37.140Z,4.07
2018-11-06T03:14:43.323Z,4.07
2018-11-06T03:15:49.504Z,4.07
2018-11-06T03:16:55.781Z,4.07
2018-11-06T03:18:01.859Z,4.07
2018-11-06T03:19:08.032Z,4.07
2018-11-06T03:20:14.699Z,4.07
2018-11-06T03:21:20.887Z,4.07
2018-11-06T03:22:27.075Z,4.07
2018-11-06T03:23:32.726Z,4.07
2018-11-06T03:24:38.911Z,4.07
2018-11-06T03:25:46.081Z,4.07
2018-11-06T03:26:51.782Z,4.07
2018-11-06T03:27:57.438Z,4.07
2018-11-06T03:29:04.110Z,4.07
2018-11-06T03:30:10.288Z,4.07
2018-11-06T03:31:15.962Z,4.07
2018-11-06T03:32:22.631Z,4.07
2018-11-06T03:33:28.816Z,4.07
2018-11-06T03:34:34.578Z,4.07
2018-11-06T03:35:40.671Z,4.07
2018-11-06T03:36:47.318Z,4.07
2018-11-06T03:37:53.010Z,4.07
2018-11-06T03:38:59.660Z,4.07
2018-11-06T03:40:05.352Z,4.07
2018-11-06T03:41:12.017Z,4.07
2018-11-06T03:42:18.176Z,4.07
2018-11-06T03:43:23.871Z,4.07
2018-11-06T03:44:30.565Z,4.07
2018-11-06T03:45:36.700Z,4.07
2018-11-06T03:46:42.874Z,4.07
2018-11-06T03:47:48.550Z,4.07
2018-11-06T03:48:55.216Z,4.07
2018-11-06T03:50:01.378Z,4.07
2018-11-06T03:51:07.051Z,4.06
2018-11-06T03:52:13.718Z,4.07
2018-11-06T03:53:19.881Z,4.07
2018-11-06T03:54:26.046Z,4.07
2018-11-06T03:55:32.216Z,4.07
2018-11-06T03:56:38.384Z,4.07
2018-11-06T03:57:44.058Z,4.07
2018-11-06T03:58:50.725Z,4.07
2018-11-06T03:59:56.384Z,4.07
2018-11-06T04:01:02.555Z,4.07
2018-11-06T04:02:08.767Z,4.07
2018-11-06T04:03:14.883Z,4.07
2018-11-06T04:04:21.531Z,4.07
2018-11-06T04:05:27.212Z,4.07
2018-11-06T04:06:33.863Z,4.07
2018-11-06T04:07:40.034Z,4.07
2018-11-06T04:08:45.696Z,4.07
2018-11-06T04:09:51.862Z,4.07
2018-11-06T04:10:58.021Z,4.07
2018-11-06T04:12:04.191Z,4.07
2018-11-06T04:13:10.827Z,4.07
2018-11-06T04:14:16.504Z,4.07
2018-11-06T04:15:22.653Z,4.07
2018-11-06T04:16:29.307Z,4.07
2018-11-06T04:17:35.484Z,4.06
2018-11-06T04:18:41.661Z,4.07
2018-11-06T04:19:47.298Z,4.07
2018-11-06T04:21:59.622Z,4.07
2018-11-06T04:23:06.291Z,4.07
2018-11-06T04:24:11.950Z,4.07
2018-11-06T04:25:18.598Z,4.07
2018-11-06T04:26:24.265Z,4.07
2018-11-06T04:27:30.912Z,4.07
2018-11-06T04:28:36.587Z,4.07
2018-11-06T04:29:43.252Z,4.07
2018-11-06T04:30:48.907Z,4.06
2018-11-06T04:31:55.572Z,4.07
2018-11-06T04:33:01.228Z,4.07
2018-11-06T04:34:07.895Z,4.07
2018-11-06T04:35:13.591Z,4.07
2018-11-06T04:36:20.204Z,4.07
2018-11-06T04:37:25.877Z,4.07
2018-11-06T04:38:32.043Z,4.06
2018-11-06T04:39:38.718Z,4.07
2018-11-06T04:40:44.858Z,4.07
2018-11-06T04:41:51.025Z,4.06
2018-11-06T04:42:57.180Z,4.06
2018-11-06T04:44:02.854Z,4.07
2018-11-06T04:45:09.527Z,4.06
2018-11-06T04:46:15.173Z,4.06
2018-11-06T04:47:21.837Z,4.06
2018-11-06T04:48:27.999Z,4.07
2018-11-06T04:49:34.161Z,4.07
2018-11-06T04:50:39.830Z,4.06
2018-11-06T04:51:45.988Z,4.07
2018-11-06T04:52:53.645Z,4.06
2018-11-06T04:53:58.865Z,4.06
2018-11-06T04:55:04.993Z,4.07
2018-11-06T04:56:10.646Z,4.06
2018-11-06T04:57:17.292Z,4.06
2018-11-06T04:58:23.458Z,4.06
2018-11-06T04:59:29.631Z,4.07
2018-11-06T05:00:35.786Z,4.06
2018-11-06T05:01:41.953Z,4.06
2018-11-06T05:02:47.615Z,4.06
2018-11-06T05:03:54.264Z,4.07
2018-11-06T05:05:00.438Z,4.06
2018-11-06T05:06:06.589Z,4.06
2018-11-06T05:07:12.770Z,4.06
2018-11-06T05:08:18.407Z,4.06
2018-11-06T05:09:24.571Z,4.06
2018-11-06T05:10:31.229Z,4.06
2018-11-06T05:11:36.903Z,4.07
2018-11-06T05:12:43.548Z,4.06
2018-11-06T05:13:49.263Z,4.06
2018-11-06T05:14:55.381Z,4.06
2018-11-06T05:16:01.526Z,4.07
2018-11-06T05:17:07.685Z,4.06
2018-11-06T05:18:14.834Z,4.06
2018-11-06T05:19:20.565Z,4.06
2018-11-06T05:20:26.160Z,4.06
2018-11-06T05:21:32.312Z,4.06
2018-11-06T05:22:38.961Z,4.06
2018-11-06T05:23:44.623Z,4.06
2018-11-06T05:24:50.775Z,4.06
2018-11-06T05:25:56.940Z,4.06
2018-11-06T05:27:03.097Z,4.06
2018-11-06T05:28:09.246Z,4.06
2018-11-06T05:29:15.400Z,4.07
2018-11-06T05:30:22.062Z,4.06
2018-11-06T05:31:28.205Z,4.06
2018-11-06T05:32:34.374Z,4.06
2018-11-06T05:33:40.564Z,4.06
2018-11-06T05:34:46.708Z,4.06
2018-11-06T05:35:52.839Z,4.06
2018-11-06T05:36:58.999Z,4.06
2018-11-06T05:38:04.658Z,4.06
2018-11-06T05:39:10.934Z,4.06
2018-11-06T05:40:17.469Z,4.06
2018-11-06T05:41:23.621Z,4.06
2018-11-06T05:42:29.773Z,4.06
2018-11-06T05:43:35.932Z,4.06
2018-11-06T05:44:41.591Z,4.06
2018-11-06T05:45:48.237Z,4.06
2018-11-06T05:46:54.388Z,4.06
2018-11-06T05:48:00.048Z,4.06
2018-11-06T05:49:06.705Z,4.06
2018-11-06T05:50:12.855Z,4.06
2018-11-06T05:51:19.007Z,4.06
2018-11-06T05:52:25.159Z,4.06
2018-11-06T05:53:31.310Z,4.06
2018-11-06T05:54:37.474Z,4.06
2018-11-06T05:55:43.626Z,4.06
2018-11-06T05:56:49.775Z,4.06
2018-11-06T05:57:55.934Z,4.06
2018-11-06T05:59:02.086Z,4.06
2018-11-06T06:00:07.751Z,4.06
2018-11-06T06:01:13.895Z,4.06
2018-11-06T06:02:20.039Z,4.06
2018-11-06T06:03:26.673Z,4.06
2018-11-06T06:04:32.823Z,4.06
2018-11-06T06:05:38.600Z,4.06
2018-11-06T06:06:45.140Z,4.06
2018-11-06T06:07:51.265Z,4.06
2018-11-06T06:08:57.458Z,4.06
2018-11-06T06:10:03.550Z,4.06
2018-11-06T06:11:09.267Z,4.06
2018-11-06T06:12:15.335Z,4.06
2018-11-06T06:13:21.986Z,4.06
2018-11-06T06:14:28.136Z,4.06
2018-11-06T06:15:33.775Z,4.06
2018-11-06T06:16:39.969Z,4.06
2018-11-06T06:17:46.044Z,4.06
2018-11-06T06:18:52.712Z,4.06
2018-11-06T06:19:58.834Z,4.06
2018-11-06T06:21:04.999Z,4.06
2018-11-06T06:22:10.618Z,4.06
2018-11-06T06:23:16.760Z,4.06
2018-11-06T06:24:23.394Z,4.06
2018-11-06T06:25:29.533Z,4.06
2018-11-06T06:26:35.680Z,4.06
2018-11-06T06:27:41.306Z,4.06
2018-11-06T06:28:47.446Z,4.06
2018-11-06T06:29:53.592Z,4.06
2018-11-06T06:31:00.564Z,4.06
2018-11-06T06:32:06.371Z,4.06
2018-11-06T06:33:11.997Z,4.06
2018-11-06T06:34:18.641Z,4.06
2018-11-06T06:35:24.276Z,4.06
2018-11-06T06:36:30.422Z,4.06
2018-11-06T06:37:37.054Z,4.06
2018-11-06T06:38:43.246Z,4.06
2018-11-06T06:39:48.861Z,4.06
2018-11-06T06:40:55.538Z,4.06
2018-11-06T06:42:01.110Z,4.06
2018-11-06T06:43:07.742Z,4.06
2018-11-06T06:44:13.866Z,4.06
2018-11-06T06:45:20.005Z,4.07
2018-11-06T06:46:26.191Z,4.06
2018-11-06T06:47:32.293Z,4.06
2018-11-06T06:48:38.421Z,4.06
2018-11-06T06:49:44.062Z,4.07
2018-11-06T06:50:50.192Z,4.06
2018-11-06T06:51:56.336Z,4.07
2018-11-06T06:53:02.966Z,4.06
2018-11-06T06:54:09.359Z,4.07
2018-11-06T06:55:15.320Z,4.07
2018-11-06T06:56:20.880Z,4.07
2018-11-06T06:57:27.021Z,4.06
2018-11-06T06:58:33.143Z,4.07
2018-11-06T06:59:39.782Z,4.07
2018-11-06T07:00:45.449Z,4.07
2018-11-06T07:01:52.053Z,4.07
2018-11-06T07:02:57.695Z,4.07
2018-11-06T07:04:04.324Z,4.07
2018-11-06T07:05:10.566Z,4.07
2018-11-06T07:06:16.096Z,4.07
2018-11-06T07:07:22.742Z,4.07
2018-11-06T07:08:28.379Z,4.07
2018-11-06T07:09:34.530Z,4.07
2018-11-06T07:10:40.655Z,4.07
2018-11-06T07:11:47.289Z,4.07
2018-11-06T07:12:52.994Z,4.07
2018-11-06T07:13:59.073Z,4.07
2018-11-06T07:15:05.211Z,4.07
2018-11-06T07:16:11.346Z,4.07
2018-11-06T07:17:17.579Z,4.07
2018-11-06T07:18:24.166Z,4.07
2018-11-06T07:19:29.769Z,4.08
2018-11-06T07:20:35.908Z,4.07
2018-11-06T07:21:42.050Z,4.07
2018-11-06T07:22:48.194Z,4.08
2018-11-06T07:23:54.333Z,4.07
2018-11-06T07:25:00.481Z,4.07
2018-11-06T07:26:06.634Z,4.08
2018-11-06T07:27:12.780Z,4.08
2018-11-06T07:28:18.926Z,4.08
2018-11-06T07:29:25.061Z,4.08
2018-11-06T07:30:31.210Z,4.08
2018-11-06T07:31:37.857Z,4.08
2018-11-06T07:32:44.022Z,4.08
2018-11-06T07:33:50.172Z,4.08
2018-11-06T07:34:55.954Z,4.08
2018-11-06T07:36:01.996Z,4.08
2018-11-06T07:37:08.136Z,4.08
2018-11-06T07:38:14.785Z,4.08
2018-11-06T07:39:20.447Z,4.08
2018-11-06T07:40:27.120Z,4.08
2018-11-06T07:41:32.753Z,4.08
2018-11-06T07:42:38.908Z,4.08
2018-11-06T07:43:45.076Z,4.08
2018-11-06T07:44:51.221Z,4.08
2018-11-06T07:45:57.385Z,4.08
2018-11-06T07:47:03.532Z,4.08
2018-11-06T07:48:10.195Z,4.08
2018-11-06T07:49:15.850Z,4.08
2018-11-06T07:50:22.035Z,4.08
2018-11-06T07:51:28.167Z,4.08
2018-11-06T07:52:34.812Z,4.08
2018-11-06T07:53:40.488Z,4.08
2018-11-06T07:54:46.633Z,4.08
2018-11-06T07:55:52.919Z,4.08
2018-11-06T07:56:58.965Z,4.08
2018-11-06T07:58:05.613Z,4.08
2018-11-06T07:59:11.283Z,4.08
2018-11-06T08:00:17.434Z,4.08
2018-11-06T08:01:24.594Z,4.08
2018-11-06T08:02:29.770Z,4.08
2018-11-06T08:03:35.944Z,4.08
2018-11-06T08:04:42.077Z,4.08
2018-11-06T08:05:48.255Z,4.08
2018-11-06T08:06:54.895Z,4.08
2018-11-06T08:08:01.066Z,4.08
2018-11-06T08:09:06.743Z,4.08
2018-11-06T08:10:13.910Z,4.08
2018-11-06T08:11:19.082Z,4.08
2018-11-06T08:12:25.249Z,4.08
2018-11-06T08:13:31.421Z,4.08
2018-11-06T08:14:37.819Z,4.07
2018-11-06T08:15:43.754Z,4.08
2018-11-06T08:16:49.935Z,4.08
2018-11-06T08:17:56.167Z,4.08
2018-11-06T08:19:02.765Z,4.08
2018-11-06T08:20:08.451Z,4.08
2018-11-06T08:21:14.636Z,4.09
2018-11-06T08:22:20.802Z,4.09
2018-11-06T08:23:26.992Z,4.08
2018-11-06T08:24:33.168Z,4.09
2018-11-06T08:25:39.367Z,4.09
2018-11-06T08:26:45.527Z,4.09
2018-11-06T08:27:51.844Z,4.09
2018-11-06T08:28:57.902Z,4.09
2018-11-06T08:30:04.078Z,4.09
2018-11-06T08:31:10.338Z,4.09
2018-11-06T08:32:16.746Z,4.09
2018-11-06T08:33:22.660Z,4.09
2018-11-06T08:34:28.840Z,4.09
2018-11-06T08:35:35.034Z,4.09
2018-11-06T08:36:41.302Z,4.09
2018-11-06T08:37:47.428Z,4.09
2018-11-06T08:38:53.622Z,4.09
2018-11-06T08:39:59.808Z,4.09
2018-11-06T08:41:06.010Z,4.09
2018-11-06T08:42:12.739Z,4.09
2018-11-06T08:43:18.436Z,4.09
2018-11-06T08:44:25.121Z,4.09
2018-11-06T08:45:31.319Z,4.09
2018-11-06T08:46:37.045Z,4.09
2018-11-06T08:47:43.734Z,4.09
2018-11-06T08:48:49.569Z,4.09
2018-11-06T08:49:55.671Z,4.09
2018-11-06T08:51:02.368Z,4.09
2018-11-06T08:52:08.098Z,4.09
2018-11-06T08:53:14.302Z,4.09
2018-11-06T08:54:20.529Z,4.09
2018-11-06T08:55:26.749Z,4.09
2018-11-06T08:56:32.957Z,4.09
2018-11-06T08:57:39.173Z,4.09
2018-11-06T08:58:45.409Z,4.09
2018-11-06T08:59:51.632Z,4.09
2018-11-06T09:00:57.870Z,4.09
2018-11-06T09:02:04.105Z,4.09
2018-11-06T09:03:11.312Z,4.09
2018-11-06T09:04:17.066Z,4.09
2018-11-06T09:05:22.801Z,4.09
2018-11-06T09:06:29.567Z,4.09
2018-11-06T09:07:35.258Z,4.10
2018-11-06T09:08:41.545Z,4.09
2018-11-06T09:09:47.776Z,4.09
2018-11-06T09:10:54.991Z,4.09
2018-11-06T09:12:00.230Z,4.10
2018-11-06T09:13:06.483Z,4.10
2018-11-06T09:14:12.740Z,4.10
2018-11-06T09:15:18.981Z,4.10
2018-11-06T09:16:25.240Z,4.09
2018-11-06T09:17:31.581Z,4.10
2018-11-06T09:18:37.733Z,4.10
2018-11-06T09:19:43.994Z,4.10
2018-11-06T09:20:50.432Z,4.10
2018-11-06T09:21:56.999Z,4.10
2018-11-06T09:23:02.763Z,4.10
2018-11-06T09:24:09.015Z,4.10
2018-11-06T09:25:15.286Z,4.10
2018-11-06T09:26:21.549Z,4.10
2018-11-06T09:27:27.818Z,4.10
2018-11-06T09:28:34.078Z,4.10
2018-11-06T09:29:40.346Z,4.10
2018-11-06T09:30:46.668Z,4.10
2018-11-06T09:31:52.887Z,4.10
2018-11-06T09:32:59.158Z,4.10
2018-11-06T09:34:05.424Z,4.10
2018-11-06T09:35:11.742Z,4.10
2018-11-06T09:36:18.018Z,4.10
2018-11-06T09:37:24.256Z,4.10
2018-11-06T09:38:31.023Z,4.10
2018-11-06T09:39:36.806Z,4.10
2018-11-06T09:40:43.576Z,4.10
2018-11-06T09:41:49.854Z,4.10
2018-11-06T09:42:55.648Z,4.10
2018-11-06T09:44:01.945Z,4.10
2018-11-06T09:45:08.314Z,4.10
2018-11-06T09:46:14.981Z,4.10
2018-11-06T09:47:20.791Z,4.10
2018-11-06T09:48:27.063Z,4.10
2018-11-06T09:49:33.865Z,4.10
2018-11-06T09:50:39.674Z,4.11
2018-11-06T09:51:45.945Z,4.11
2018-11-06T09:52:52.732Z,4.11
2018-11-06T09:53:58.539Z,4.11
2018-11-06T09:55:04.862Z,4.11
2018-11-06T09:56:11.160Z,4.12
2018-11-06T09:57:17.566Z,4.12
2018-11-06T09:58:23.975Z,4.12
2018-11-06T09:59:30.601Z,4.12
2018-11-06T10:00:36.431Z,4.12
2018-11-06T10:01:42.956Z,4.12
2018-11-06T10:02:49.574Z,4.12
2018-11-06T10:03:55.414Z,4.12
2018-11-06T10:05:01.747Z,4.12
2018-11-06T10:06:08.641Z,4.12
2018-11-06T10:07:14.710Z,4.13
2018-11-06T10:08:20.752Z,4.11
2018-11-06T10:09:27.092Z,4.11
2018-11-06T10:10:33.942Z,4.11
2018-11-06T10:11:40.287Z,4.11
2018-11-06T10:12:46.174Z,4.11
2018-11-06T10:13:52.999Z,4.11
2018-11-06T10:14:58.870Z,4.11
2018-11-06T10:16:05.739Z,4.11
2018-11-06T10:17:12.102Z,4.11
2018-11-06T10:18:18.454Z,4.10
2018-11-06T10:19:24.349Z,4.10
2018-11-06T10:20:31.241Z,4.10
2018-11-06T10:21:37.625Z,4.10
2018-11-06T10:22:43.508Z,4.11
2018-11-06T10:23:49.882Z,4.10
2018-11-06T10:24:56.772Z,4.10
2018-11-06T10:26:02.689Z,4.10
2018-11-06T10:27:09.093Z,4.10
2018-11-06T10:28:15.572Z,4.10
2018-11-06T10:29:22.885Z,4.10
2018-11-06T10:30:28.311Z,4.10
2018-11-06T10:31:35.206Z,4.10
2018-11-06T10:32:41.133Z,4.10
2018-11-06T10:33:47.537Z,4.10
2018-11-06T10:34:54.461Z,4.10
2018-11-06T10:36:00.899Z,4.10
2018-11-06T10:37:06.813Z,4.10
2018-11-06T10:38:13.282Z,4.10
2018-11-06T10:39:19.698Z,4.10
2018-11-06T10:40:26.641Z,4.10
2018-11-06T10:41:33.071Z,4.10
2018-11-06T10:42:39.037Z,4.10
2018-11-06T10:43:45.610Z,4.10
2018-11-06T10:44:52.430Z,4.10
2018-11-06T10:45:58.410Z,4.10
2018-11-06T10:47:04.857Z,4.10
2018-11-06T10:48:11.326Z,4.10
2018-11-06T10:49:17.783Z,4.10
2018-11-06T10:50:24.732Z,4.10
2018-11-06T10:51:30.741Z,4.10
2018-11-06T10:52:37.177Z,4.10
2018-11-06T10:53:45.121Z,4.10
2018-11-06T10:54:50.097Z,4.10
2018-11-06T10:55:56.568Z,4.10
2018-11-06T10:57:03.045Z,4.10
2018-11-06T10:58:09.513Z,4.10
2018-11-06T10:59:16.567Z,4.10
2018-11-06T11:00:22.432Z,4.10
2018-11-06T11:01:28.915Z,4.10
2018-11-06T11:02:35.380Z,4.10
2018-11-06T11:03:41.865Z,4.10
2018-11-06T11:04:48.323Z,4.10
2018-11-06T11:05:55.306Z,4.10
2018-11-06T11:07:01.789Z,4.10
2018-11-06T11:08:08.268Z,4.10
2018-11-06T11:09:14.746Z,4.10
2018-11-06T11:10:21.743Z,4.10
2018-11-06T11:11:27.719Z,4.10
2018-11-06T11:12:33.951Z,4.10
2018-11-06T11:13:40.714Z,4.10
2018-11-06T11:14:46.706Z,4.10
2018-11-06T11:15:53.219Z,4.10
2018-11-06T11:16:59.719Z,4.10
2018-11-06T11:18:06.214Z,4.10
2018-11-06T11:19:14.209Z,4.10
2018-11-06T11:20:19.342Z,4.10
2018-11-06T11:21:27.229Z,4.10
2018-11-06T11:22:32.260Z,4.10
2018-11-06T11:23:38.776Z,4.10
2018-11-06T11:24:45.805Z,4.10
2018-11-06T11:25:51.834Z,4.10
2018-11-06T11:26:58.882Z,4.10
2018-11-06T11:28:05.446Z,4.10
2018-11-06T11:29:11.504Z,4.10
2018-11-06T11:30:18.077Z,4.10
2018-11-06T11:31:25.150Z,4.10
2018-11-06T11:32:32.734Z,4.10
2018-11-06T11:33:37.842Z,4.10
2018-11-06T11:34:44.415Z,4.10
2018-11-06T11:35:51.026Z,4.10
2018-11-06T11:36:57.634Z,4.10
2018-11-06T11:38:04.271Z,4.10
2018-11-06T11:39:10.891Z,4.10
2018-11-06T11:40:17.993Z,4.10
2018-11-06T11:41:24.134Z,4.10
2018-11-06T11:42:30.758Z,4.10
2018-11-06T11:43:37.373Z,4.10
2018-11-06T11:44:43.993Z,4.10
2018-11-06T11:45:50.662Z,4.10
2018-11-06T11:46:57.669Z,4.10
2018-11-06T11:48:03.772Z,4.10
2018-11-06T11:49:10.358Z,4.10
2018-11-06T11:50:16.930Z,4.10
2018-11-06T11:51:23.513Z,4.10
2018-11-06T11:52:30.564Z,4.10
2018-11-06T11:53:36.648Z,4.10
2018-11-06T11:54:43.202Z,4.10
2018-11-06T11:55:49.767Z,4.10
2018-11-06T11:56:56.319Z,4.11
2018-11-06T11:58:02.876Z,4.11
2018-11-06T11:59:09.430Z,4.11
2018-11-06T12:00:16.641Z,4.11
2018-11-06T12:01:23.026Z,4.10
2018-11-06T12:02:29.072Z,4.11
2018-11-06T12:03:35.611Z,4.11
2018-11-06T12:04:42.643Z,4.10
2018-11-06T12:05:49.184Z,4.11
2018-11-06T12:06:55.226Z,4.11
2018-11-06T12:08:02.294Z,4.11
2018-11-06T12:09:08.302Z,4.11
2018-11-06T12:10:14.839Z,4.11
2018-11-06T12:11:21.372Z,4.10
2018-11-06T12:12:28.138Z,4.11
2018-11-06T12:13:34.437Z,4.11
2018-11-06T12:14:40.984Z,4.11
2018-11-06T12:15:47.549Z,4.11
2018-11-06T12:16:54.568Z,4.11
2018-11-06T12:18:01.170Z,4.11
2018-11-06T12:19:07.093Z,4.11
2018-11-06T12:20:14.151Z,4.11
2018-11-06T12:21:20.174Z,4.11
2018-11-06T12:22:27.188Z,4.11
2018-11-06T12:23:33.226Z,4.11
2018-11-06T12:24:39.777Z,4.11
2018-11-06T12:25:46.545Z,4.11
2018-11-06T12:26:52.845Z,4.11
2018-11-06T12:27:59.356Z,4.11
2018-11-06T12:29:05.874Z,4.11
2018-11-06T12:30:13.894Z,4.11
2018-11-06T12:31:18.938Z,4.11
2018-11-06T12:32:25.471Z,4.11
2018-11-06T12:33:32.025Z,4.11
2018-11-06T12:34:39.018Z,4.11
2018-11-06T12:35:45.536Z,4.11
2018-11-06T12:36:53.114Z,4.11
2018-11-06T12:37:58.100Z,4.11
2018-11-06T12:39:05.115Z,4.11
2018-11-06T12:40:11.637Z,4.11
2018-11-06T12:41:18.158Z,4.11
2018-11-06T12:42:24.696Z,4.11
2018-11-06T12:43:31.266Z,4.11
2018-11-06T12:44:37.311Z,4.11
2018-11-06T12:45:44.274Z,4.11
2018-11-06T12:46:50.803Z,4.11
2018-11-06T12:47:56.839Z,4.11
2018-11-06T12:49:03.406Z,4.11
2018-11-06T12:50:10.433Z,4.11
2018-11-06T12:51:16.398Z,4.11
2018-11-06T12:52:22.924Z,4.11
2018-11-06T12:53:29.459Z,4.12
2018-11-06T12:54:36.573Z,4.11
2018-11-06T12:55:42.592Z,4.11
2018-11-06T12:56:49.022Z,4.11
2018-11-06T12:57:56.033Z,4.11
2018-11-06T12:59:02.082Z,4.12
2018-11-06T13:00:09.080Z,4.11
2018-11-06T13:01:15.105Z,4.12
2018-11-06T13:02:21.628Z,4.11
2018-11-06T13:03:28.263Z,4.11
2018-11-06T13:04:34.685Z,4.12
2018-11-06T13:05:41.201Z,4.11
2018-11-06T13:06:47.711Z,4.11
2018-11-06T13:07:54.734Z,4.11
2018-11-06T13:09:00.810Z,4.11
2018-11-06T13:10:07.872Z,4.12
2018-11-06T13:11:14.279Z,4.12
2018-11-06T13:12:20.315Z,4.11
2018-11-06T13:13:26.834Z,4.12
2018-11-06T13:14:33.349Z,4.11
2018-11-06T13:15:39.952Z,4.12
2018-11-06T13:16:46.868Z,4.11
2018-11-06T13:17:53.388Z,4.11
2018-11-06T13:18:59.601Z,4.12
2018-11-06T13:20:05.938Z,4.12
2018-11-06T13:21:12.927Z,4.11
2018-11-06T13:22:19.445Z,4.11
2018-11-06T13:23:25.467Z,4.12
2018-11-06T13:24:32.471Z,4.12
2018-11-06T13:25:38.559Z,4.12
2018-11-06T13:26:45.035Z,4.12
2018-11-06T13:27:52.028Z,4.12
2018-11-06T13:28:58.534Z,4.12
2018-11-06T13:30:04.567Z,4.12
2018-11-06T13:31:11.076Z,4.12
2018-11-06T13:32:17.622Z,4.12
2018-11-06T13:33:24.604Z,4.12
2018-11-06T13:34:30.639Z,4.12
2018-11-06T13:35:37.651Z,4.11
2018-11-06T13:36:44.162Z,4.12
2018-11-06T13:37:50.185Z,4.12
2018-11-06T13:38:56.710Z,4.11
2018-11-06T13:40:03.231Z,4.11
2018-11-06T13:41:10.041Z,4.11
2018-11-06T13:42:16.308Z,4.11
2018-11-06T13:43:22.796Z,4.11
2018-11-06T13:44:29.608Z,4.11
2018-11-06T13:45:35.926Z,4.11
2018-11-06T13:46:42.329Z,4.11
2018-11-06T13:47:48.838Z,4.11
2018-11-06T13:48:55.350Z,4.11
2018-11-06T13:50:01.878Z,4.11
2018-11-06T13:51:08.379Z,4.11
2018-11-06T13:52:15.422Z,4.11
2018-11-06T13:53:21.411Z,4.11
2018-11-06T13:54:27.919Z,4.11
2018-11-06T13:55:34.452Z,4.11
2018-11-06T13:56:40.943Z,4.11
2018-11-06T13:57:47.570Z,4.11
2018-11-06T13:58:53.967Z,4.11
2018-11-06T14:00:00.969Z,4.11
2018-11-06T14:01:07.579Z,4.11
2018-11-06T14:02:13.493Z,4.11
2018-11-06T14:03:20.009Z,4.11
2018-11-06T14:04:26.632Z,4.11
2018-11-06T14:05:33.050Z,4.11
2018-11-06T14:06:39.564Z,4.10
2018-11-06T14:07:46.084Z,4.10
2018-11-06T14:08:52.603Z,4.11
2018-11-06T14:09:59.121Z,4.11
2018-11-06T14:11:05.639Z,4.11
2018-11-06T14:12:12.226Z,4.11
2018-11-06T14:13:18.684Z,4.10
2018-11-06T14:14:25.213Z,4.10
2018-11-06T14:15:31.715Z,4.10
2018-11-06T14:16:38.243Z,4.10
2018-11-06T14:17:45.248Z,4.10
2018-11-06T14:18:51.285Z,4.10
2018-11-06T14:19:58.291Z,4.11
2018-11-06T14:21:04.855Z,4.10
2018-11-06T14:22:10.826Z,4.10
2018-11-06T14:23:17.348Z,4.10
2018-11-06T14:24:24.373Z,4.10
2018-11-06T14:25:30.388Z,4.10
2018-11-06T14:26:36.908Z,4.10
2018-11-06T14:27:43.901Z,4.10
2018-11-06T14:28:50.416Z,4.10
2018-11-06T14:29:56.955Z,4.10
2018-11-06T14:31:02.940Z,4.10
2018-11-06T14:32:09.956Z,4.10
2018-11-06T14:33:15.965Z,4.10
2018-11-06T14:34:22.957Z,4.10
2018-11-06T14:35:28.970Z,4.11
2018-11-06T14:36:35.463Z,4.10
2018-11-06T14:37:42.465Z,4.10
2018-11-06T14:38:48.461Z,4.10
2018-11-06T14:39:55.574Z,4.10
2018-11-06T14:41:01.575Z,4.10
2018-11-06T14:42:08.455Z,4.10
2018-11-06T14:43:14.436Z,4.10
2018-11-06T14:44:20.926Z,4.10